ROTAER D-AMDT 8/24 Ver mudanças

Pedro Rabelo de Souza ( SNZR ) / PARACATU, MG 17 14 34S/046 52 59W
AD PUB 3SW UTC-3 730.76 (2398)

11 - ( 1500x30 ASPH 11/F/C/Y/T ) - 29

SBBS (CINDACTA 1)
RDONAV -
NDB PKT 300 171418,7061S/0465316,6387W
SER - S1  
MET - MET CIVIL –

RMK -

OBSTÁCULO DE AERÓDROMO
  1. OBST (TORRE METÁLICA) NEG LGTD COORD 171324.20S/0465133.20W ELEV 817M MONTADO.
  2. OBST violando SFC horizontal interna do plano básico de zona de proteção do AD:
    1- OBST auxílio a navegação aérea NEG LGTD COORD 171419S /0465317W ELEV 778M.
    2- OBST torre de telecomunicações NEG LGTD COORD 171254S /0465252W ELEV 785M.
    3- OBST antenas NEG LGTD COORD 171459S/0465517W ELEV 933M.
  3. OBST (MORRO) NEG LGTD COORD 171035S/0465841W ELEV 925M
  4. OBST (TORRE) NEG LGTD COORD 171128S/0465534W ELEV 996M
  5. OBST (TORRE) NEG LGTD COORD 170743S/0465841W ELEV 1028M
INFORMAÇÃO METEOROLÓGICA FORNECIDA
  1. ERAA FREQ 132.350MHZ HR SER H24
REGULAMENTOS PARA TRÁFEGO LOCAL
  1. OBS ACFT em vôo de instrução próximo ao AD
INFORMAÇÃO ADICIONAL
  1. CTC para quaisquer informações do AD TEL: (38) 3671-7214 / (61) 3081-8484 / (61)99990-8484.
DISTÂNCIA(S) DECLARADA(S)
  1.  
RWY TORA(m) TODA(m) ASDA(m) LDA(m) ALT. GEOIDAL(m) COORDENADAS
11 1500 1500 1500 1500
29 1500 1500 1500 1500
TEMP (0)

Suplementos AIP (0)

NOTAM (Carregando ...)


Nascer/Por do Sol

09:16

20:57


METAR

160700Z AUTO 05004KT 020V100 CAVOK 22/18 Q1019=

TAF


OPEA/Obstáculos


Cartas (1)

VAC



Rotas Preferenciais (0)